Time;durP1;ratioP1;P1;durP2;ratioP2;P2;SDS_P1;SDS_P2;PMS_P1;PMS_P2;Temp;Humidity;BMP_temperature;BMP_pressure;BME280_temperature;BME280_humidity;BME280_pressure;Samples;Min_cycle;Max_cycle;Signal;HPM_P1;HPM_P2
2021/05/18 00:01:35;;;;;;;7.43;2.60;;;;;;;22.81;32.73;100050.22;4395838;32;20072;-80
2021/05/18 00:04:02;;;;;;;6.80;2.35;;;;;;;22.92;32.92;100058.72;4388704;32;20420;-80
2021/05/18 00:06:28;;;;;;;7.40;2.50;;;;;;;22.84;32.87;100052.81;4387586;32;20031;-80
2021/05/18 00:11:44;;;;;;;7.53;3.22;;;;;;;22.73;33.42;100055.78;4388930;32;20408;-80
2021/05/18 00:14:14;;;;;;;7.35;2.92;;;;;;;22.78;33.16;100057.03;4388679;32;20082;-80
2021/05/18 00:16:40;;;;;;;6.47;2.90;;;;;;;23.30;32.57;100063.19;4389973;32;20442;-80
2021/05/18 00:19:06;;;;;;;7.50;3.35;;;;;;;23.19;32.75;100054.69;4391723;32;20099;-80
2021/05/18 00:21:32;;;;;;;7.90;3.08;;;;;;;22.94;33.04;100045.38;4390282;32;20038;-80
2021/05/18 00:23:58;;;;;;;7.03;3.05;;;;;;;22.92;33.18;100058.72;4389316;32;20046;-80
2021/05/18 00:26:23;;;;;;;7.12;3.67;;;;;;;23.01;33.00;100052.59;4390563;32;20092;-80
2021/05/18 00:28:49;;;;;;;11.45;3.97;;;;;;;22.59;33.77;100050.50;4390849;32;20124;-79
2021/05/18 00:31:15;;;;;;;10.23;3.60;;;;;;;22.81;33.47;100053.09;4390141;32;20078;-80
2021/05/18 00:33:42;;;;;;;13.07;3.90;;;;;;;23.05;33.09;100044.47;4388962;32;20312;-80
2021/05/18 00:36:09;;;;;;;10.48;3.80;;;;;;;22.89;33.37;100049.06;4391372;32;20123;-80
2021/05/18 00:38:36;;;;;;;6.87;4.03;;;;;;;23.13;33.12;100051.91;4391091;32;20038;-80
2021/05/18 00:41:02;;;;;;;7.18;3.35;;;;;;;22.89;33.32;100049.06;4389481;32;20068;-80
2021/05/18 00:43:28;;;;;;;8.88;4.10;;;;;;;23.14;33.25;100050.56;4391048;32;20050;-80
2021/05/18 00:45:54;;;;;;;8.88;3.60;;;;;;;23.16;32.95;100052.91;4388410;32;20122;-80
2021/05/18 00:48:22;;;;;;;10.25;3.75;;;;;;;22.91;33.38;100051.41;4390103;32;20074;-80
2021/05/18 00:50:52;;;;;;;9.05;4.18;;;;;;;23.27;33.06;100058.53;4389366;32;20062;-80
2021/05/18 00:53:18;;;;;;;11.95;4.82;;;;;;;23.30;33.08;100051.72;4388408;32;20144;-79
2021/05/18 00:55:51;;;;;;;11.40;4.22;;;;;;;23.06;33.46;100055.41;4389964;32;20330;-79
2021/05/18 00:58:48;;;;;;;9.60;5.12;;;;;;;23.03;33.44;100058.56;4390283;32;20078;-79
2021/05/18 01:01:07;;;;;;;13.25;4.40;;;;;;;23.04;33.25;100066.63;4388158;32;20503;-79
2021/05/18 01:03:35;;;;;;;12.90;4.12;;;;;;;23.54;32.66;100071.72;4386801;32;20143;-79
2021/05/18 01:06:33;;;;;;;10.85;3.80;;;;;;;23.22;33.23;100074.50;4384737;32;20117;-79
2021/05/18 01:08:50;;;;;;;13.27;4.90;;;;;;;23.03;33.59;100067.16;4391692;32;20482;-79
2021/05/18 01:11:22;;;;;;;5.55;3.83;;;;;;;23.19;33.33;100080.53;4392464;32;20649;-79
2021/05/18 01:13:49;;;;;;;6.85;3.85;;;;;;;23.24;33.29;100071.91;4390738;32;20074;-79
2021/05/18 01:16:15;;;;;;;8.65;4.45;;;;;;;23.00;33.67;100071.91;4387104;32;20466;-80
2021/05/18 01:18:44;;;;;;;8.20;4.20;;;;;;;22.90;33.77;100067.06;4388718;32;20107;-79
2021/05/18 01:21:12;;;;;;;10.88;4.12;;;;;;;23.21;33.46;100067.22;4386594;32;20140;-79
2021/05/18 01:23:39;;;;;;;11.63;4.22;;;;;;;23.29;33.35;100070.25;4392086;32;20484;-79
2021/05/18 01:26:10;;;;;;;11.43;4.43;;;;;;;23.20;33.39;100079.22;4390632;32;20313;-79
2021/05/18 01:28:36;;;;;;;8.10;4.47;;;;;;;23.44;33.16;100071.34;4394182;32;20100;-79
2021/05/18 01:31:04;;;;;;;8.75;3.90;;;;;;;23.19;33.34;100069.03;4392044;32;20076;-80
2021/05/18 01:33:30;;;;;;;15.25;4.35;;;;;;;23.58;32.92;100069.31;4388192;32;20401;-79
2021/05/18 01:35:57;;;;;;;10.38;4.72;;;;;;;23.15;33.39;100071.47;4391690;32;20405;-79
2021/05/18 01:38:30;;;;;;;9.52;4.22;;;;;;;22.92;33.80;100076.69;4393980;32;20124;-79
2021/05/18 01:43:49;;;;;;;10.00;4.60;;;;;;;23.00;33.66;100071.13;4391282;32;20454;-79
2021/05/18 01:46:14;;;;;;;10.55;4.85;;;;;;;23.36;33.25;100076.16;4374526;32;20459;-79
2021/05/18 01:48:47;;;;;;;10.57;4.47;;;;;;;22.98;33.64;100076.66;4391773;32;20077;-79
2021/05/18 01:51:14;;;;;;;10.63;4.53;;;;;;;23.15;33.47;100077.19;4393454;32;20078;-79
2021/05/18 01:53:40;;;;;;;8.57;4.93;;;;;;;22.91;33.83;100077.22;4389158;32;20070;-79
2021/05/18 01:58:47;;;;;;;9.65;5.15;;;;;;;23.06;33.39;100074.69;3980824;32;15145773;-81
2021/05/18 02:01:13;;;;;;;13.02;7.22;;;;;;;22.86;33.87;100078.84;4438319;32;20048;-80
2021/05/18 02:03:39;;;;;;;14.15;5.95;;;;;;;23.03;33.87;100072.91;4432195;32;20186;-80
2021/05/18 02:06:05;;;;;;;11.57;5.95;;;;;;;23.06;33.82;100077.56;4430181;32;20089;-80
2021/05/18 02:08:31;;;;;;;11.63;4.97;;;;;;;23.39;33.50;100080.03;4428606;32;20038;-81
2021/05/18 02:10:57;;;;;;;9.20;5.12;;;;;;;23.17;33.37;100077.44;4430669;32;20448;-81
2021/05/18 02:13:23;;;;;;;10.25;5.40;;;;;;;23.13;33.32;100074.87;4431405;32;20085;-81
2021/05/18 02:16:03;;;;;;;9.27;5.35;;;;;;;22.98;33.53;100076.66;4429242;32;20191;-81
2021/05/18 02:19:13;;;;;;;10.13;5.87;;;;;;;22.94;33.39;100085.53;4428566;32;20084;-81
2021/05/18 02:26:45;;;;;;;11.80;5.28;;;;;;;23.13;33.00;100083.47;4428823;32;19988;-81
2021/05/18 02:29:11;;;;;;;15.55;6.82;;;;;;;23.04;33.08;100089.59;4430103;32;20022;-80
2021/05/18 02:31:37;;;;;;;13.80;5.78;;;;;;;22.80;33.59;100089.59;4426170;32;20111;-81
2021/05/18 02:34:03;;;;;;;11.73;5.00;;;;;;;22.46;34.05;100091.25;4429594;32;20324;-81
2021/05/18 02:36:28;;;;;;;8.95;5.35;;;;;;;22.81;33.75;100087.53;4425714;32;20329;-80
2021/05/18 02:38:55;;;;;;;11.00;5.25;;;;;;;22.94;33.36;100091.28;4428079;32;20473;-81
2021/05/18 02:41:21;;;;;;;8.48;5.50;;;;;;;23.33;32.95;100087.94;4430064;32;20418;-81
2021/05/18 02:43:53;;;;;;;12.52;4.75;;;;;;;23.03;33.14;100093.78;4425541;32;20062;-80
2021/05/18 02:49:17;;;;;;;8.27;4.90;;;;;;;23.50;32.97;100099.97;3983997;32;15022409;-81
2021/05/18 02:51:45;;;;;;;13.40;5.65;;;;;;;23.50;32.97;100099.97;4439401;32;20038;-80
2021/05/18 02:54:13;;;;;;;11.38;5.32;;;;;;;23.31;32.93;100099.19;4436864;32;20203;-81
2021/05/18 02:56:49;;;;;;;10.10;4.87;;;;;;;23.35;33.03;100094.69;4437511;32;20076;-81
2021/05/18 02:59:18;;;;;;;12.88;4.60;;;;;;;23.15;33.08;100103.81;4436102;32;20101;-81
2021/05/18 03:01:49;;;;;;;13.80;5.50;;;;;;;23.00;33.24;100094.87;4428944;32;20077;-81
2021/05/18 03:04:15;;;;;;;9.50;4.35;;;;;;;23.18;33.19;100096.22;4423237;32;20089;-79
2021/05/18 03:06:41;;;;;;;11.35;4.22;;;;;;;22.84;33.56;100103.66;4424555;32;20049;-79
2021/05/18 03:09:11;;;;;;;9.65;3.95;;;;;;;22.49;34.20;100098.78;4422934;32;20089;-79
2021/05/18 03:11:39;;;;;;;12.90;3.53;;;;;;;22.86;33.78;100107.53;4425286;32;20067;-79
2021/05/18 03:14:07;;;;;;;8.38;4.18;;;;;;;22.82;33.89;100109.16;4423163;32;20124;-79
2021/05/18 03:16:34;;;;;;;8.90;4.00;;;;;;;22.83;33.90;100110.72;4420123;32;20038;-79
2021/05/18 03:19:01;;;;;;;5.80;3.25;;;;;;;22.95;33.63;100107.19;4421668;32;20122;-79
2021/05/18 03:21:27;;;;;;;16.35;4.55;;;;;;;22.53;34.20;100107.91;4423449;32;20052;-79
2021/05/18 03:23:53;;;;;;;7.78;3.92;;;;;;;22.78;33.83;100112.34;4421313;32;20026;-79
2021/05/18 03:26:19;;;;;;;9.32;3.55;;;;;;;22.84;33.76;100118.78;4423052;32;20097;-79
2021/05/18 03:28:47;;;;;;;5.93;3.47;;;;;;;22.97;33.65;100110.28;4417814;32;20093;-79
2021/05/18 03:36:44;;;;;;;6.57;3.53;;;;;;;23.39;32.88;100114.50;4423896;32;20457;-79
2021/05/18 03:39:11;;;;;;;5.82;3.35;;;;;;;23.12;33.15;100107.75;4424459;32;20029;-79
2021/05/18 03:44:27;;;;;;;11.43;3.85;;;;;;;22.87;33.57;100103.38;4422522;32;20493;-79
2021/05/18 03:52:19;;;;;;;10.48;4.15;;;;;;;23.91;32.36;100119.75;3985405;32;15021872;-78
2021/05/18 04:03:02;;;;;;;9.75;4.43;;;;;;;23.88;32.19;100106.47;4453287;32;20021;-78
2021/05/18 04:59:21;;;;;;;;;;;;;;;24.55;31.23;100145.13;4440962;32;20081;-79
2021/05/18 05:07:31;;;;;;;;;;;;;;;25.38;30.53;100158.72;4441924;32;20429;-79
2021/05/18 05:09:56;;;;;;;7.03;2.50;;;;;;;25.47;30.23;100151.75;4442209;32;19963;-79
2021/05/18 05:14:59;;;;;;;10.25;3.10;;;;;;;25.14;30.59;100158.94;3982955;32;15022155;-79
2021/05/18 05:17:25;;;;;;;5.37;2.62;;;;;;;25.14;30.59;100158.94;4437219;32;20068;-79
2021/05/18 05:19:51;;;;;;;8.00;2.75;;;;;;;24.51;31.29;100155.41;4436178;32;20060;-79
2021/05/18 05:22:16;;;;;;;9.25;3.42;;;;;;;24.83;31.00;100156.16;4437933;32;20065;-79
2021/05/18 05:24:44;;;;;;;7.00;3.08;;;;;;;24.77;31.16;100153.38;4439963;32;20055;-79
2021/05/18 05:27:10;;;;;;;10.45;3.35;;;;;;;25.17;30.67;100162.81;4437367;32;20377;-78
2021/05/18 05:29:36;;;;;;;7.05;2.80;;;;;;;25.20;30.90;100171.12;4437391;32;20542;-79
2021/05/18 05:32:02;;;;;;;8.15;3.20;;;;;;;24.95;31.26;100171.91;4438860;32;20062;-79
2021/05/18 05:34:28;;;;;;;5.97;2.50;;;;;;;24.95;31.31;100164.00;4435510;32;20542;-79
2021/05/18 05:36:54;;;;;;;8.30;3.35;;;;;;;24.75;31.64;100172.50;4436930;32;20041;-78
2021/05/18 05:41:57;;;;;;;6.07;3.53;;;;;;;25.93;30.39;100176.16;3999094;31;15020332;-78
2021/05/18 05:44:23;;;;;;;6.97;2.72;;;;;;;25.93;30.39;100176.16;4448256;32;20071;-78
2021/05/18 05:46:49;;;;;;;7.07;3.25;;;;;;;25.76;30.38;100175.75;4444829;32;20432;-77
2021/05/18 05:49:16;;;;;;;6.70;3.20;;;;;;;25.48;30.53;100182.13;4448357;32;20132;-77
2021/05/18 05:51:42;;;;;;;7.05;3.40;;;;;;;25.80;30.65;100179.84;4448372;32;20070;-77
2021/05/18 05:54:08;;;;;;;6.37;3.05;;;;;;;25.62;30.70;100177.13;4450465;32;20114;-80
2021/05/18 05:56:34;;;;;;;7.45;3.12;;;;;;;25.97;30.57;100185.22;4447046;32;20402;-77
2021/05/18 05:59:01;;;;;;;6.03;3.10;;;;;;;25.78;30.38;100182.50;4445908;32;20099;-78
2021/05/18 06:01:29;;;;;;;5.60;2.80;;;;;;;25.68;30.46;100180.66;4441707;32;20430;-78
2021/05/18 06:03:55;;;;;;;6.82;3.70;;;;;;;25.62;30.61;100175.00;4435129;32;20059;-79
2021/05/18 06:06:21;;;;;;;6.45;3.55;;;;;;;25.89;30.59;100172.84;4432154;32;20089;-78
2021/05/18 06:08:47;;;;;;;9.35;4.75;;;;;;;25.62;31.10;100180.78;4431028;32;20084;-78
2021/05/18 06:11:20;;;;;;;5.10;3.40;;;;;;;25.33;31.41;100184.78;4429650;32;20064;-78
2021/05/18 06:13:58;;;;;;;4.12;2.85;;;;;;;25.84;30.31;100182.38;4430895;32;20041;-79
2021/05/18 06:41:17;;;;;;;11.05;4.97;;;;;;;26.83;29.07;100209.66;4405016;32;20096;-78
2021/05/18 06:46:34;;;;;;;13.95;5.65;;;;;;;26.55;29.43;100217.44;3949504;32;15723461;-78
2021/05/18 06:49:00;;;;;;;14.93;6.25;;;;;;;26.25;29.55;100212.12;4427934;32;20262;-79
2021/05/18 06:51:26;;;;;;;10.63;6.68;;;;;;;26.14;29.83;100217.38;4424712;32;20125;-80
2021/05/18 06:53:53;;;;;;;11.85;5.53;;;;;;;26.22;29.76;100221.91;4425301;32;20510;-79
2021/05/18 06:56:18;;;;;;;8.07;5.32;;;;;;;25.74;30.29;100222.41;4427961;32;20029;-79
2021/05/18 07:01:20;;;;;;;12.10;6.40;;;;;;;26.37;29.94;100227.06;3967927;32;15022785;-79
2021/05/18 07:03:53;;;;;;;13.52;5.90;;;;;;;26.37;29.94;100227.06;4409886;32;20081;-76
2021/05/18 07:09:05;;;;;;;4.18;3.03;;;;;;;24.64;31.76;100216.66;4416056;32;20120;-78
2021/05/18 07:11:31;;;;;;;3.78;3.30;;;;;;;24.98;31.52;100216.84;4415310;32;21124;-79
2021/05/18 07:13:56;;;;;;;7.22;2.80;;;;;;;25.75;30.46;100217.44;4409923;32;21717;-79
2021/05/18 07:16:23;;;;;;;2.40;1.90;;;;;;;25.47;30.30;100229.56;4408220;32;20065;-80
2021/05/18 07:18:49;;;;;;;3.25;1.98;;;;;;;25.49;29.97;100223.22;4413954;32;20113;-77
2021/05/18 07:21:15;;;;;;;3.72;2.10;;;;;;;26.14;29.47;100223.16;4407219;32;20391;-79
2021/05/18 07:23:40;;;;;;;2.75;1.60;;;;;;;25.70;29.92;100238.50;4415143;32;20132;-77
2021/05/18 07:26:06;;;;;;;3.37;1.75;;;;;;;25.81;29.12;100238.28;4413742;32;20069;-81
2021/05/18 07:28:34;;;;;;;3.15;1.92;;;;;;;25.70;29.51;100238.50;4413135;32;20038;-75
2021/05/18 07:31:01;;;;;;;2.72;1.30;;;;;;;26.17;29.10;100237.22;4418713;32;20072;-76
2021/05/18 07:33:27;;;;;;;3.83;1.50;;;;;;;26.45;28.60;100239.47;4418927;32;20104;-78
2021/05/18 07:35:57;;;;;;;5.15;2.10;;;;;;;26.43;28.34;100236.34;4417964;32;20037;-77
2021/05/18 07:38:25;;;;;;;4.37;1.25;;;;;;;26.92;27.77;100240.94;4419145;32;20042;-78
2021/05/18 07:40:51;;;;;;;3.42;1.80;;;;;;;27.51;27.21;100244.06;4418110;32;20084;-76
2021/05/18 07:43:18;;;;;;;2.80;1.33;;;;;;;26.76;27.89;100250.00;4418374;32;20695;-78
2021/05/18 07:45:49;;;;;;;6.15;1.33;;;;;;;26.54;27.68;100236.09;4417210;32;20053;-79
2021/05/18 07:48:26;;;;;;;4.95;1.50;;;;;;;26.87;27.42;100241.84;4419515;32;20086;-78
2021/05/18 08:05:36;;;;;;;5.93;1.57;;;;;;;27.15;26.84;100244.75;4448767;32;19992;-79
2021/05/18 08:07:18;;;;;;;1.48;1.00;;;;;;;26.92;27.10;100240.13;4432959;32;20095;-75
2021/05/18 08:09:48;;;;;;;2.62;1.08;;;;;;;27.33;26.53;100242.25;4448892;32;20102;-75
2021/05/18 08:12:14;;;;;;;3.10;1.00;;;;;;;27.71;26.36;100241.13;4448392;32;20140;-76
2021/05/18 08:14:46;;;;;;;3.05;0.80;;;;;;;27.15;26.06;100232.41;4449360;32;20080;-76
2021/05/18 08:17:19;;;;;;;1.67;0.70;;;;;;;26.52;26.17;100233.78;4451582;32;20081;-76
2021/05/18 08:23:03;;;;;;;2.33;0.60;;;;;;;26.54;26.28;100233.97;4447997;32;20069;-75
2021/05/18 08:59:12;;;;;;;1.45;0.50;;;;;;;28.77;23.20;100245.97;3978651;32;15021636;-75
2021/05/18 09:44:38;;;;;;;2.50;0.85;;;;;;;29.51;21.60;100245.81;4427313;32;20073;-74
2021/05/18 10:36:15;;;;;;;2.22;0.65;;;;;;;33.50;16.92;100263.16;4433218;32;20189;-75
2021/05/18 10:38:47;;;;;;;9.05;1.50;;;;;;;33.53;16.97;100253.19;4435580;32;20097;-75
2021/05/18 10:46:46;;;;;;;2.60;0.80;;;;;;;34.37;15.41;100245.09;3978788;32;15025429;-75
2021/05/18 10:49:14;;;;;;;0.70;0.40;;;;;;;33.73;16.26;100251.81;4432560;32;20076;-75
2021/05/18 11:07:28;;;;;;;4.65;0.80;;;;;;;32.77;17.56;100255.78;3975226;32;15022398;-75
2021/05/18 11:09:54;;;;;;;1.42;0.62;;;;;;;32.77;17.56;100255.78;4432423;32;20084;-79
2021/05/18 11:12:24;;;;;;;2.40;0.90;;;;;;;32.65;17.36;100253.41;4431578;32;20068;-76
2021/05/18 11:23:19;;;;;;;2.75;0.50;;;;;;;33.42;15.82;100254.53;3974699;32;15022861;-75
2021/05/18 11:25:33;;;;;;;1.92;0.55;;;;;;;33.42;15.82;100254.53;4422230;32;20073;-76
2021/05/18 11:28:09;;;;;;;2.97;0.62;;;;;;;33.38;15.45;100256.38;4424369;32;20114;-77
2021/05/18 11:30:35;;;;;;;2.22;0.68;;;;;;;34.75;15.27;100256.69;4425606;32;20104;-77
2021/05/18 11:33:01;;;;;;;0.77;0.50;;;;;;;34.44;15.12;100255.09;4427578;32;20042;-77
2021/05/18 11:35:26;;;;;;;1.60;0.60;;;;;;;34.62;14.52;100259.31;4420884;32;21077;-77
2021/05/18 11:38:01;;;;;;;2.08;0.70;;;;;;;34.49;14.65;100251.84;4422088;32;20454;-77
2021/05/18 11:40:28;;;;;;;4.82;0.77;;;;;;;35.38;14.44;100259.06;4423341;32;20112;-77
2021/05/18 11:42:54;;;;;;;1.80;0.80;;;;;;;33.83;15.50;100256.28;4424203;32;20077;-76
2021/05/18 11:45:21;;;;;;;2.50;1.05;;;;;;;33.22;15.96;100260.91;4425949;32;20100;-77
2021/05/18 11:47:51;;;;;;;3.47;0.70;;;;;;;33.12;15.86;100263.00;4425714;32;20068;-77
2021/05/18 11:52:54;;;;;;;2.08;0.82;;;;;;;32.08;18.86;100263.87;3995687;31;15015709;-75
2021/05/18 11:55:25;;;;;;;2.25;0.70;;;;;;;32.08;18.86;100263.87;4451995;32;20112;-80
2021/05/18 11:57:52;;;;;;;3.17;0.60;;;;;;;31.95;18.45;100270.03;4451890;32;20065;-75
2021/05/18 12:00:22;;;;;;;2.95;0.75;;;;;;;32.67;17.31;100263.69;4445720;32;20730;-76
2021/05/18 12:02:48;;;;;;;1.80;0.60;;;;;;;32.92;16.74;100273.06;4450362;32;20068;-77
2021/05/18 12:05:14;;;;;;;1.35;0.50;;;;;;;33.22;16.40;100269.66;4449116;32;20098;-74
2021/05/18 12:07:39;;;;;;;2.35;0.30;;;;;;;33.85;16.25;100267.34;4451596;32;20106;-77
2021/05/18 12:10:06;;;;;;;2.28;0.55;;;;;;;34.83;14.99;100271.91;4453229;32;20152;-76
2021/05/18 12:12:40;;;;;;;1.40;0.70;;;;;;;36.40;14.22;100268.34;4451427;32;20177;-77
2021/05/18 12:15:08;;;;;;;0.95;0.50;;;;;;;37.31;13.38;100261.91;4452399;32;20127;-77
2021/05/18 12:17:36;;;;;;;5.10;1.12;;;;;;;37.89;13.13;100282.41;4455211;32;20103;-76
2021/05/18 12:20:04;;;;;;;3.80;1.77;;;;;;;38.39;12.97;100279.56;4451298;32;20067;-78
2021/05/18 12:22:41;;;;;;;2.58;0.70;;;;;;;37.60;13.10;100279.88;4454349;32;20080;-78
2021/05/18 12:25:08;;;;;;;1.73;0.70;;;;;;;36.48;13.81;100283.53;4451303;32;20056;-78
2021/05/18 12:27:44;;;;;;;3.20;0.70;;;;;;;36.21;13.71;100269.28;4452707;32;20108;-78
2021/05/18 12:30:10;;;;;;;6.93;0.80;;;;;;;35.56;14.66;100266.22;4453402;32;20076;-76
2021/05/18 12:32:46;;;;;;;4.07;0.80;;;;;;;34.81;15.22;100265.16;4437546;32;20112;-76
2021/05/18 12:35:22;;;;;;;2.20;0.70;;;;;;;34.41;16.18;100273.84;4449788;32;20457;-78
2021/05/18 12:37:51;;;;;;;3.62;0.90;;;;;;;33.04;18.18;100268.22;4450743;32;20076;-78
2021/05/18 12:40:34;;;;;;;3.33;1.10;;;;;;;31.69;20.35;100286.00;4449278;32;20068;-78
2021/05/18 12:43:21;;;;;;;1.67;1.05;;;;;;;29.64;24.40;100289.88;4446228;32;20064;-79
2021/05/18 12:45:46;;;;;;;3.00;0.82;;;;;;;29.17;25.40;100283.12;4450732;32;20080;-81
2021/05/18 12:48:13;;;;;;;3.60;1.20;;;;;;;28.55;24.51;100263.31;4449657;32;20041;-79
2021/05/18 12:56:03;;;;;;;2.37;0.73;;;;;;;30.79;24.48;100261.37;3963974;32;15026295;-79
2021/05/18 12:58:31;;;;;;;3.53;0.80;;;;;;;31.03;20.27;100256.94;4426290;32;20068;-81
2021/05/18 13:01:14;;;;;;;4.78;0.90;;;;;;;32.05;19.63;100257.13;4419449;32;20597;-81
2021/05/18 13:03:43;;;;;;;1.65;0.90;;;;;;;33.37;18.87;100254.84;4413030;32;20614;-78
2021/05/18 13:06:10;;;;;;;1.08;0.60;;;;;;;34.62;16.12;100244.72;4414553;32;20081;-79
2021/05/18 13:08:41;;;;;;;3.78;0.93;;;;;;;35.69;16.16;100248.88;4416208;32;20461;-81
2021/05/18 13:13:56;;;;;;;3.78;1.20;;;;;;;38.37;13.94;100255.16;3992507;31;15015724;-76
2021/05/18 13:21:58;;;;;;;5.32;1.25;;;;;;;39.00;13.21;100252.25;3977418;32;15024342;-77
2021/05/18 13:26:24;;;;;;;1.67;0.85;;;;;;;39.00;13.21;100252.25;4430169;32;20458;-77
2021/05/18 13:27:10;;;;;;;3.35;1.02;;;;;;;37.87;13.79;100255.81;4434173;32;20391;-81
2021/05/18 13:29:36;;;;;;;4.18;1.10;;;;;;;38.94;13.23;100254.81;4430519;32;20061;-77
2021/05/18 13:32:02;;;;;;;2.78;1.30;;;;;;;39.14;13.19;100266.97;4431647;32;20096;-77
2021/05/18 13:34:28;;;;;;;3.08;0.75;;;;;;;40.82;12.11;100251.50;4429601;32;20072;-77
2021/05/18 13:36:53;;;;;;;2.00;1.00;;;;;;;41.68;11.08;100270.34;4431487;32;20129;-77
2021/05/18 13:39:22;;;;;;;1.50;0.70;;;;;;;41.52;10.95;100257.81;4427608;32;20496;-77
2021/05/18 13:41:49;;;;;;;5.30;1.30;;;;;;;43.21;9.66;100265.78;4432774;32;20138;-78
2021/05/18 13:44:15;;;;;;;3.25;1.27;;;;;;;43.63;9.61;100266.63;4433733;32;20147;-79
2021/05/18 13:46:42;;;;;;;3.70;1.00;;;;;;;42.40;9.66;100267.66;4433012;32;20156;-81
2021/05/18 13:49:07;;;;;;;3.28;1.37;;;;;;;40.85;10.54;100264.91;4432032;32;20056;-77
2021/05/18 13:51:33;;;;;;;2.60;0.80;;;;;;;39.62;11.80;100254.91;4432899;32;20050;-77
2021/05/18 13:53:59;;;;;;;1.67;0.73;;;;;;;41.15;10.95;100257.53;4431654;32;20449;-77
2021/05/18 13:56:25;;;;;;;1.83;0.77;;;;;;;42.40;10.04;100252.88;4431144;32;20447;-82
2021/05/18 13:58:52;;;;;;;5.45;0.80;;;;;;;43.84;9.37;100262.97;4425120;32;20352;-77
2021/05/18 14:01:18;;;;;;;4.43;1.10;;;;;;;45.08;8.07;100272.44;4430340;32;20087;-79
2021/05/18 14:03:44;;;;;;;3.05;1.05;;;;;;;42.80;8.93;100268.56;4421422;32;20899;-82
2021/05/18 14:06:12;;;;;;;2.08;0.73;;;;;;;41.11;9.43;100252.19;4420373;32;20099;-78
2021/05/18 14:08:38;;;;;;;2.22;1.00;;;;;;;41.11;9.37;100252.19;4421124;32;20049;-79
2021/05/18 14:11:06;;;;;;;1.95;0.70;;;;;;;42.22;9.13;100257.22;4418880;32;20121;-79
2021/05/18 14:13:36;;;;;;;2.90;0.80;;;;;;;43.74;8.14;100253.72;4414831;32;20160;-80
2021/05/18 14:16:04;;;;;;;1.73;0.60;;;;;;;43.82;8.12;100265.84;4415614;32;20037;-79
2021/05/18 14:18:31;;;;;;;2.20;0.95;;;;;;;43.92;7.69;100269.97;4417566;32;20256;-78
2021/05/18 14:20:58;;;;;;;3.65;1.00;;;;;;;44.01;7.75;100262.88;4422298;32;20041;-79
2021/05/18 14:23:25;;;;;;;2.22;0.70;;;;;;;44.52;7.49;100256.47;4418937;32;20160;-78
2021/05/18 14:25:53;;;;;;;3.03;1.10;;;;;;;44.34;7.77;100261.81;4420370;32;20102;-81
2021/05/18 14:28:20;;;;;;;1.45;0.90;;;;;;;44.62;7.79;100266.50;4415056;32;20078;-79
2021/05/18 14:30:47;;;;;;;2.17;0.77;;;;;;;45.63;7.21;100258.47;4421650;32;20069;-78
2021/05/18 14:33:13;;;;;;;2.55;0.73;;;;;;;47.21;6.57;100267.81;4405435;32;20104;-78
2021/05/18 14:35:39;;;;;;;2.70;0.70;;;;;;;46.58;6.57;100267.00;4411731;32;20077;-78
2021/05/18 14:38:16;;;;;;;2.25;0.57;;;;;;;44.86;7.42;100263.53;4408006;32;20096;-78
2021/05/18 14:46:24;;;;;;;3.55;1.05;;;;;;;41.20;8.82;100247.44;4402578;32;20230;-78
2021/05/18 14:57:17;;;;;;;5.10;1.27;;;;;;;39.06;10.68;100246.69;4431037;32;20085;-77
2021/05/18 14:59:43;;;;;;;2.35;0.90;;;;;;;40.16;10.39;100259.94;4433233;32;20488;-76
2021/05/18 15:02:09;;;;;;;6.32;1.05;;;;;;;41.04;10.46;100265.13;4419539;32;20465;-77
2021/05/18 15:04:35;;;;;;;3.60;1.17;;;;;;;40.63;12.77;100267.53;4411488;32;20029;-76
2021/05/18 15:07:06;;;;;;;8.55;1.30;;;;;;;38.23;14.72;100260.19;4416972;32;20400;-76
2021/05/18 15:09:32;;;;;;;4.10;1.35;;;;;;;37.27;15.62;100255.03;4413198;32;20054;-76
2021/05/18 15:11:58;;;;;;;3.87;1.23;;;;;;;35.27;17.05;100263.41;4418239;32;20039;-76
2021/05/18 15:14:24;;;;;;;4.87;1.10;;;;;;;36.31;16.30;100260.41;4419121;32;20499;-77
2021/05/18 15:16:49;;;;;;;2.47;0.75;;;;;;;36.94;15.90;100257.28;4415516;32;20101;-77
2021/05/18 15:19:17;;;;;;;1.87;0.85;;;;;;;37.42;15.45;100266.22;4417582;32;20045;-76
2021/05/18 15:21:43;;;;;;;4.00;1.20;;;;;;;37.85;15.18;100270.38;4416349;32;20096;-76
2021/05/18 15:24:10;;;;;;;5.07;1.00;;;;;;;37.42;15.16;100277.97;4415595;32;20060;-77
2021/05/18 15:26:36;;;;;;;3.40;1.50;;;;;;;36.89;15.76;100276.00;4413878;32;20115;-76
2021/05/18 15:29:03;;;;;;;7.82;3.22;;;;;;;35.92;16.56;100268.75;4417785;32;20042;-76
2021/05/18 15:31:29;;;;;;;4.68;1.27;;;;;;;34.33;18.00;100276.91;4416682;32;20080;-76
2021/05/18 15:33:55;;;;;;;1.50;0.82;;;;;;;32.56;19.50;100253.38;4412701;32;20034;-77
2021/05/18 15:36:21;;;;;;;2.45;1.17;;;;;;;32.08;20.00;100272.59;4415147;32;20055;-77
2021/05/18 15:38:47;;;;;;;5.15;1.08;;;;;;;31.02;21.12;100269.16;4419426;32;20574;-77
2021/05/18 15:41:15;;;;;;;4.95;1.12;;;;;;;30.64;21.30;100264.34;4419602;32;20082;-76
2021/05/18 15:43:44;;;;;;;1.85;0.73;;;;;;;30.12;22.10;100271.16;4418569;32;20073;-77
2021/05/18 15:46:10;;;;;;;1.92;1.17;;;;;;;29.02;23.27;100263.56;4419254;32;20034;-77
2021/05/18 15:48:35;;;;;;;8.50;1.75;;;;;;;28.76;23.60;100279.19;4420443;32;20510;-77
2021/05/18 15:51:01;;;;;;;4.72;1.50;;;;;;;28.75;23.58;100276.88;4417845;32;20173;-77
2021/05/18 15:53:28;;;;;;;2.65;1.52;;;;;;;29.69;22.78;100271.50;4416378;32;20097;-77
2021/05/18 15:55:54;;;;;;;2.72;1.20;;;;;;;30.19;22.19;100276.19;4419843;32;20077;-77
2021/05/18 15:58:20;;;;;;;2.87;1.50;;;;;;;30.18;22.12;100283.38;4418663;32;20042;-76
2021/05/18 16:00:51;;;;;;;2.40;1.40;;;;;;;30.10;22.30;100276.03;4418163;32;20185;-77
2021/05/18 16:03:17;;;;;;;3.00;1.55;;;;;;;30.01;22.46;100285.34;4407126;32;20085;-76
2021/05/18 16:05:43;;;;;;;4.07;0.95;;;;;;;29.52;22.91;100285.03;4405338;32;20091;-77
2021/05/18 16:09:13;;;;;;;2.83;0.88;;;;;;;29.45;23.08;100282.91;4410651;32;20664;-77
2021/05/18 16:10:59;;;;;;;3.00;1.00;;;;;;;29.49;23.15;100278.28;4408556;32;20113;-76
2021/05/18 16:13:25;;;;;;;2.87;1.10;;;;;;;30.71;21.85;100272.22;4409263;32;20053;-77
2021/05/18 16:15:51;;;;;;;5.90;1.40;;;;;;;31.45;20.94;100278.13;4410560;32;20355;-77
2021/05/18 16:18:17;;;;;;;3.15;1.10;;;;;;;32.04;20.43;100281.00;4406833;32;20070;-78
2021/05/18 16:20:43;;;;;;;4.45;1.65;;;;;;;31.67;20.82;100285.06;4412328;32;20077;-78
2021/05/18 16:23:09;;;;;;;3.90;1.40;;;;;;;32.44;19.99;100288.09;4406207;32;20076;-77
2021/05/18 16:25:36;;;;;;;3.90;0.98;;;;;;;32.65;19.82;100285.44;4407567;32;20031;-78
2021/05/18 16:28:01;;;;;;;3.80;1.80;;;;;;;33.40;18.96;100282.75;4405991;32;20039;-78
2021/05/18 16:30:28;;;;;;;5.43;1.48;;;;;;;33.69;18.61;100286.53;4407605;32;20034;-78
2021/05/18 16:32:53;;;;;;;3.00;0.85;;;;;;;33.88;18.33;100293.19;4406000;32;20100;-80
2021/05/18 16:35:19;;;;;;;2.87;1.00;;;;;;;33.12;18.68;100287.09;4404851;32;20030;-79
2021/05/18 16:37:45;;;;;;;1.60;1.00;;;;;;;34.86;16.82;100290.38;4406275;32;20132;-79
2021/05/18 16:40:11;;;;;;;3.70;1.50;;;;;;;36.34;15.68;100294.31;4405149;32;21213;-79
2021/05/18 16:42:38;;;;;;;3.42;0.95;;;;;;;37.24;15.05;100291.53;4405704;32;20052;-80
2021/05/18 16:45:06;;;;;;;1.73;0.73;;;;;;;38.24;14.08;100294.81;4406087;32;20046;-78
2021/05/18 16:47:32;;;;;;;1.92;1.02;;;;;;;38.57;13.79;100297.50;4404891;32;20088;-77
2021/05/18 16:49:58;;;;;;;2.70;1.02;;;;;;;39.23;13.18;100305.03;4409288;32;20062;-78
2021/05/18 16:52:24;;;;;;;2.17;1.10;;;;;;;40.18;12.44;100313.88;4407168;32;20335;-78
2021/05/18 16:54:50;;;;;;;1.90;1.02;;;;;;;38.41;13.35;100311.25;4404749;32;20544;-78
2021/05/18 16:57:15;;;;;;;4.22;1.23;;;;;;;38.19;13.66;100316.56;4404871;32;20424;-78
2021/05/18 16:59:41;;;;;;;2.55;0.80;;;;;;;37.53;14.17;100307.34;4410276;32;20182;-78
2021/05/18 17:02:07;;;;;;;3.40;1.08;;;;;;;37.15;14.19;100307.78;4409886;32;20053;-78
2021/05/18 17:04:34;;;;;;;1.87;1.05;;;;;;;37.01;14.41;100315.72;4406393;32;20490;-78
2021/05/18 17:07:02;;;;;;;6.75;1.37;;;;;;;36.83;14.79;100305.72;4407676;32;20082;-78